Time;durP1;ratioP1;P1;durP2;ratioP2;P2;SDS_P1;SDS_P2;PMS_P1;PMS_P2;Temp;Humidity;BMP_temperature;BMP_pressure;BME280_temperature;BME280_humidity;BME280_pressure;Samples;Min_cycle;Max_cycle;Signal;HPM_P1;HPM_P2
2023/05/14 00:00:46;;;;;;;12.77;9.40;;;;;;;;;;5105388;28;20115;-61
2023/05/14 00:03:12;;;;;;;14.13;9.40;;;;;;;;;;5092195;28;20080;-61
2023/05/14 00:05:38;;;;;;;18.52;10.80;;;;;;;;;;5104258;28;20035;-61
2023/05/14 00:08:05;;;;;;;12.07;9.35;;;;;;;;;;5105745;28;20059;-61
2023/05/14 00:10:31;;;;;;;15.93;10.02;;;;;;;;;;5102117;28;20040;-61
2023/05/14 00:12:57;;;;;;;12.35;8.70;;;;;;;;;;5091386;28;20556;-61
2023/05/14 00:15:23;;;;;;;11.73;8.60;;;;;;;;;;5091622;28;20083;-61
2023/05/14 00:17:49;;;;;;;12.95;8.98;;;;;;;;;;5107568;28;20092;-61
2023/05/14 00:20:15;;;;;;;12.95;8.32;;;;;;;;;;5106180;28;20062;-61
2023/05/14 00:22:42;;;;;;;10.90;8.05;;;;;;;;;;5092665;28;20044;-61
2023/05/14 00:25:08;;;;;;;12.13;8.55;;;;;;;;;;5100560;28;20451;-61
2023/05/14 00:27:36;;;;;;;10.65;7.60;;;;;;;;;;5104126;28;20162;-61
2023/05/14 00:30:03;;;;;;;14.93;8.00;;;;;;;;;;5106495;28;20051;-61
2023/05/14 00:32:29;;;;;;;13.30;8.65;;;;;;;;;;5101381;28;20035;-61
2023/05/14 00:34:55;;;;;;;15.90;9.07;;;;;;;;;;5096980;27;20047;-61
2023/05/14 00:37:22;;;;;;;10.60;8.20;;;;;;;;;;5108657;28;20078;-61
2023/05/14 00:39:48;;;;;;;13.23;7.55;;;;;;;;;;5107578;28;20031;-61
2023/05/14 00:42:14;;;;;;;14.07;8.43;;;;;;;;;;5099908;28;20044;-61
2023/05/14 00:44:40;;;;;;;14.45;9.25;;;;;;;;;;5098087;28;20040;-61
2023/05/14 00:47:06;;;;;;;18.55;8.60;;;;;;;;;;5106669;28;20537;-61
2023/05/14 00:49:33;;;;;;;11.02;7.70;;;;;;;;;;5104160;28;20048;-61
2023/05/14 00:51:59;;;;;;;13.43;8.32;;;;;;;;;;5093807;28;20086;-61
2023/05/14 00:54:26;;;;;;;12.98;7.88;;;;;;;;;;5103095;28;20496;-61
2023/05/14 00:56:53;;;;;;;13.90;7.78;;;;;;;;;;5098310;28;20075;-61
2023/05/14 00:59:19;;;;;;;13.90;8.57;;;;;;;;;;5102828;28;20625;-61
2023/05/14 01:01:45;;;;;;;10.20;7.18;;;;;;;;;;5098873;28;20126;-60
2023/05/14 01:04:12;;;;;;;13.85;7.40;;;;;;;;;;5104688;28;20427;-60
2023/05/14 01:06:47;;;;;;;13.10;7.65;;;;;;;;;;5112023;28;20040;-61
2023/05/14 01:09:19;;;;;;;11.55;7.03;;;;;;;;;;5107339;28;20107;-61
2023/05/14 01:11:52;;;;;;;14.80;6.68;;;;;;;;;;5100487;28;20136;-61
2023/05/14 01:14:43;;;;;;;12.60;6.93;;;;;;;;;;5100519;28;20385;-61
2023/05/14 01:17:10;;;;;;;11.40;7.45;;;;;;;;;;5094570;28;20520;-61
2023/05/14 01:19:41;;;;;;;12.50;7.05;;;;;;;;;;5108602;28;20036;-60
2023/05/14 01:22:07;;;;;;;12.15;7.35;;;;;;;;;;5104283;28;20051;-61
2023/05/14 01:24:33;;;;;;;15.80;7.78;;;;;;;;;;5108067;28;20555;-61
2023/05/14 01:27:11;;;;;;;10.93;8.07;;;;;;;;;;5100370;28;20024;-61
2023/05/14 01:29:39;;;;;;;16.45;8.80;;;;;;;;;;5105395;28;20036;-60
2023/05/14 01:32:06;;;;;;;11.52;7.93;;;;;;;;;;5103840;28;20047;-61
2023/05/14 01:34:32;;;;;;;16.67;7.78;;;;;;;;;;5104043;28;20039;-62
2023/05/14 01:36:59;;;;;;;10.82;7.57;;;;;;;;;;5099945;28;20574;-62
2023/05/14 01:39:26;;;;;;;11.27;7.28;;;;;;;;;;5089729;28;20047;-62
2023/05/14 01:41:52;;;;;;;13.65;8.65;;;;;;;;;;5109880;27;20464;-61
2023/05/14 01:44:19;;;;;;;14.65;8.20;;;;;;;;;;5112411;27;20452;-62
2023/05/14 01:46:45;;;;;;;12.80;9.15;;;;;;;;;;5107896;28;20521;-62
2023/05/14 01:49:11;;;;;;;18.00;8.82;;;;;;;;;;5100503;28;20358;-62
2023/05/14 01:51:37;;;;;;;15.85;9.13;;;;;;;;;;5101900;28;20103;-62
2023/05/14 01:54:03;;;;;;;14.38;9.35;;;;;;;;;;5099232;28;20048;-61
2023/05/14 01:56:29;;;;;;;21.13;10.70;;;;;;;;;;5091996;28;20048;-62
2023/05/14 01:58:55;;;;;;;18.85;9.05;;;;;;;;;;5102507;28;20048;-61
2023/05/14 02:01:22;;;;;;;17.58;9.25;;;;;;;;;;5110437;28;20574;-62
2023/05/14 02:03:48;;;;;;;19.00;9.20;;;;;;;;;;5100856;27;20474;-62
2023/05/14 02:06:14;;;;;;;17.13;10.10;;;;;;;;;;5109820;28;20043;-61
2023/05/14 02:08:40;;;;;;;17.80;9.80;;;;;;;;;;5104285;28;20044;-62
2023/05/14 02:11:06;;;;;;;12.38;8.45;;;;;;;;;;5105151;28;20089;-62
2023/05/14 02:13:33;;;;;;;17.55;8.50;;;;;;;;;;5105824;27;20062;-62
2023/05/14 02:15:59;;;;;;;13.05;9.00;;;;;;;;;;5099053;28;20028;-62
2023/05/14 02:18:25;;;;;;;15.25;8.80;;;;;;;;;;5104611;28;20039;-62
2023/05/14 02:20:51;;;;;;;13.50;7.90;;;;;;;;;;5105047;28;20036;-61
2023/05/14 02:23:17;;;;;;;13.80;8.77;;;;;;;;;;5094932;28;20055;-61
2023/05/14 02:25:43;;;;;;;14.85;9.05;;;;;;;;;;5102878;28;20066;-62
2023/05/14 02:28:10;;;;;;;13.63;8.23;;;;;;;;;;5108113;27;20118;-62
2023/05/14 02:30:36;;;;;;;14.40;9.00;;;;;;;;;;5105838;28;20043;-62
2023/05/14 02:33:02;;;;;;;16.23;8.93;;;;;;;;;;5091794;28;20036;-62
2023/05/14 02:35:28;;;;;;;11.95;8.35;;;;;;;;;;5104918;28;20044;-62
2023/05/14 02:37:55;;;;;;;15.48;8.88;;;;;;;;;;5106350;28;20047;-61
2023/05/14 02:40:21;;;;;;;14.05;8.38;;;;;;;;;;5109603;28;20441;-61
2023/05/14 02:42:47;;;;;;;15.90;8.95;;;;;;;;;;5095371;28;20051;-62
2023/05/14 02:45:13;;;;;;;19.00;10.05;;;;;;;;;;5105020;28;20032;-62
2023/05/14 02:47:39;;;;;;;15.07;8.07;;;;;;;;;;5108429;28;20073;-62
2023/05/14 02:50:06;;;;;;;11.85;8.15;;;;;;;;;;5091993;28;20119;-61
2023/05/14 02:52:32;;;;;;;17.48;9.45;;;;;;;;;;5098097;28;20044;-61
2023/05/14 02:54:58;;;;;;;19.52;9.27;;;;;;;;;;5105629;28;20035;-62
2023/05/14 02:57:24;;;;;;;18.17;9.20;;;;;;;;;;5108891;28;20058;-62
2023/05/14 02:59:50;;;;;;;15.77;9.57;;;;;;;;;;5107277;28;20043;-62
2023/05/14 03:02:16;;;;;;;20.00;8.55;;;;;;;;;;5103975;28;20101;-61
2023/05/14 03:04:43;;;;;;;14.48;8.20;;;;;;;;;;5107586;28;20461;-61
2023/05/14 03:07:09;;;;;;;14.30;8.98;;;;;;;;;;5094668;28;20068;-62
2023/05/14 03:09:35;;;;;;;16.98;7.75;;;;;;;;;;5105907;28;20036;-62
2023/05/14 03:12:01;;;;;;;13.77;9.57;;;;;;;;;;5078941;28;20123;-61
2023/05/14 03:14:27;;;;;;;16.13;9.27;;;;;;;;;;5101702;28;20055;-61
2023/05/14 03:16:53;;;;;;;15.55;9.27;;;;;;;;;;5100790;28;20092;-62
2023/05/14 03:19:19;;;;;;;14.02;9.07;;;;;;;;;;5099779;28;20108;-62
2023/05/14 03:21:46;;;;;;;16.35;8.88;;;;;;;;;;5096541;28;20097;-62
2023/05/14 03:24:12;;;;;;;15.98;9.57;;;;;;;;;;5093387;28;20051;-62
2023/05/14 03:26:38;;;;;;;21.65;9.07;;;;;;;;;;5091316;28;20044;-62
2023/05/14 03:29:04;;;;;;;11.65;7.68;;;;;;;;;;5101052;28;20073;-61
2023/05/14 03:31:30;;;;;;;13.80;7.28;;;;;;;;;;5092926;28;20044;-62
2023/05/14 03:33:56;;;;;;;18.77;9.10;;;;;;;;;;5091414;28;20035;-62
2023/05/14 03:36:22;;;;;;;15.77;8.45;;;;;;;;;;5109056;28;20036;-62
2023/05/14 03:38:48;;;;;;;15.18;7.60;;;;;;;;;;5099774;28;20497;-62
2023/05/14 03:41:16;;;;;;;15.13;8.70;;;;;;;;;;5106589;28;20032;-61
2023/05/14 03:43:42;;;;;;;22.52;9.23;;;;;;;;;;5092072;28;20088;-61
2023/05/14 03:46:08;;;;;;;15.02;8.13;;;;;;;;;;5101392;28;20051;-62
2023/05/14 03:48:35;;;;;;;20.77;9.02;;;;;;;;;;5098222;28;20110;-61
2023/05/14 03:51:01;;;;;;;12.63;9.05;;;;;;;;;;5102609;28;20606;-61
2023/05/14 03:53:27;;;;;;;21.13;9.32;;;;;;;;;;5104767;28;20101;-61
2023/05/14 03:55:53;;;;;;;17.27;9.52;;;;;;;;;;5104590;28;20058;-62
2023/05/14 03:58:19;;;;;;;14.60;9.98;;;;;;;;;;5094619;28;20426;-61
2023/05/14 04:00:45;;;;;;;17.08;10.27;;;;;;;;;;5097190;28;20039;-61
2023/05/14 04:03:11;;;;;;;14.02;8.75;;;;;;;;;;5093000;28;20051;-61
2023/05/14 04:05:38;;;;;;;19.45;9.55;;;;;;;;;;5100450;28;20683;-61
2023/05/14 04:08:04;;;;;;;16.60;9.00;;;;;;;;;;5101105;28;20059;-61
2023/05/14 04:10:31;;;;;;;14.60;9.57;;;;;;;;;;5092368;28;20071;-61
2023/05/14 04:12:57;;;;;;;20.95;9.90;;;;;;;;;;5088579;28;20547;-61
2023/05/14 04:15:23;;;;;;;19.55;10.57;;;;;;;;;;5088726;28;20044;-61
2023/05/14 04:17:49;;;;;;;18.50;10.18;;;;;;;;;;5091993;28;20084;-61
2023/05/14 04:20:16;;;;;;;20.38;10.32;;;;;;;;;;5087534;28;20953;-61
2023/05/14 04:22:42;;;;;;;17.73;10.35;;;;;;;;;;5092701;28;20051;-62
2023/05/14 04:25:08;;;;;;;18.70;11.07;;;;;;;;;;5092259;28;20040;-62
2023/05/14 04:27:34;;;;;;;25.50;11.80;;;;;;;;;;5087591;28;20094;-61
2023/05/14 04:30:00;;;;;;;22.75;11.05;;;;;;;;;;5089663;28;20130;-62
2023/05/14 04:32:26;;;;;;;20.70;11.23;;;;;;;;;;5087291;28;20055;-61
2023/05/14 04:34:52;;;;;;;26.08;12.63;;;;;;;;;;5097615;28;20032;-61
2023/05/14 04:37:19;;;;;;;18.60;11.05;;;;;;;;;;5099400;28;20107;-61
2023/05/14 04:39:45;;;;;;;17.27;11.13;;;;;;;;;;5097256;27;20047;-61
2023/05/14 04:42:11;;;;;;;15.23;10.77;;;;;;;;;;5105850;27;20051;-61
2023/05/14 04:44:37;;;;;;;17.17;10.60;;;;;;;;;;5098484;28;20043;-62
2023/05/14 04:47:04;;;;;;;21.75;10.35;;;;;;;;;;5093081;28;20051;-62
2023/05/14 04:49:30;;;;;;;22.33;10.73;;;;;;;;;;5104128;28;20044;-61
2023/05/14 04:51:56;;;;;;;21.30;10.05;;;;;;;;;;5100830;28;20055;-62
2023/05/14 04:54:23;;;;;;;21.40;10.02;;;;;;;;;;5100838;28;20043;-61
2023/05/14 04:56:49;;;;;;;16.48;9.05;;;;;;;;;;5100801;28;20051;-61
2023/05/14 04:59:15;;;;;;;12.18;8.75;;;;;;;;;;5100385;28;20043;-61
2023/05/14 05:01:41;;;;;;;12.05;8.00;;;;;;;;;;5073228;28;20058;-61
2023/05/14 05:04:08;;;;;;;14.65;8.70;;;;;;;;;;5108043;28;20192;-61
2023/05/14 05:06:36;;;;;;;15.18;7.47;;;;;;;;;;5101799;28;20032;-61
2023/05/14 05:09:03;;;;;;;16.98;8.38;;;;;;;;;;5096543;28;20043;-62
2023/05/14 05:11:29;;;;;;;22.00;9.07;;;;;;;;;;5099098;28;20149;-61
2023/05/14 05:13:55;;;;;;;11.18;7.57;;;;;;;;;;5102493;28;20059;-61
2023/05/14 05:16:22;;;;;;;15.50;8.32;;;;;;;;;;5093495;28;20056;-62
2023/05/14 05:18:48;;;;;;;14.68;7.72;;;;;;;;;;5108221;28;20203;-62
2023/05/14 05:21:14;;;;;;;19.10;7.43;;;;;;;;;;5100435;28;20043;-61
2023/05/14 05:23:40;;;;;;;17.67;7.93;;;;;;;;;;5098297;28;20100;-61
2023/05/14 05:26:06;;;;;;;18.23;8.45;;;;;;;;;;5089427;28;20040;-61
2023/05/14 05:28:33;;;;;;;21.38;8.65;;;;;;;;;;5100863;28;20204;-62
2023/05/14 05:30:59;;;;;;;17.48;9.02;;;;;;;;;;5103700;28;20519;-61
2023/05/14 05:33:25;;;;;;;19.48;8.48;;;;;;;;;;5105395;27;20071;-61
2023/05/14 05:35:51;;;;;;;16.90;9.25;;;;;;;;;;5099543;27;20043;-62
2023/05/14 05:38:17;;;;;;;15.20;8.57;;;;;;;;;;5089810;28;20048;-61
2023/05/14 05:40:43;;;;;;;16.60;9.23;;;;;;;;;;5100767;27;20050;-61
2023/05/14 05:43:10;;;;;;;27.80;10.23;;;;;;;;;;5092753;28;20047;-63
2023/05/14 05:45:36;;;;;;;17.55;9.63;;;;;;;;;;5104764;28;20701;-62
2023/05/14 05:48:02;;;;;;;19.63;10.75;;;;;;;;;;5084004;28;20401;-63
2023/05/14 05:50:30;;;;;;;15.35;9.70;;;;;;;;;;5098483;28;20125;-62
2023/05/14 05:52:58;;;;;;;21.27;12.98;;;;;;;;;;5100912;28;20585;-62
2023/05/14 05:55:24;;;;;;;19.80;11.50;;;;;;;;;;5098210;28;20047;-62
2023/05/14 05:57:50;;;;;;;24.25;12.25;;;;;;;;;;5102218;28;20051;-62
2023/05/14 06:00:17;;;;;;;16.17;10.18;;;;;;;;;;5099670;28;20101;-62
2023/05/14 06:02:44;;;;;;;14.68;10.43;;;;;;;;;;5094981;28;20397;-62
2023/05/14 06:05:10;;;;;;;16.25;10.30;;;;;;;;;;5094707;28;20070;-62
2023/05/14 06:07:36;;;;;;;15.75;9.18;;;;;;;;;;5095846;28;20384;-63
2023/05/14 06:10:02;;;;;;;17.98;9.73;;;;;;;;;;5099483;28;20700;-62
2023/05/14 06:12:29;;;;;;;17.30;8.80;;;;;;;;;;5093588;28;20096;-62
2023/05/14 06:14:56;;;;;;;17.52;9.50;;;;;;;;;;5093134;28;20099;-62
2023/05/14 06:17:25;;;;;;;19.00;9.95;;;;;;;;;;5099085;28;20180;-62
2023/05/14 06:19:52;;;;;;;16.23;9.85;;;;;;;;;;5099344;28;20048;-62
2023/05/14 06:22:18;;;;;;;14.15;8.07;;;;;;;;;;5087860;28;20059;-62
2023/05/14 06:24:44;;;;;;;15.45;7.95;;;;;;;;;;5093346;28;20515;-62
2023/05/14 06:27:10;;;;;;;17.42;8.73;;;;;;;;;;5091327;28;20028;-62
2023/05/14 06:29:37;;;;;;;15.98;7.50;;;;;;;;;;5100342;28;20069;-62
2023/05/14 06:32:03;;;;;;;15.23;8.45;;;;;;;;;;5092718;27;20043;-62
2023/05/14 06:34:30;;;;;;;18.92;8.18;;;;;;;;;;5107486;27;20476;-62
2023/05/14 06:36:56;;;;;;;18.90;7.55;;;;;;;;;;5094909;28;20081;-62
2023/05/14 06:39:23;;;;;;;11.52;7.43;;;;;;;;;;5097084;28;20101;-62
2023/05/14 06:41:49;;;;;;;17.17;7.95;;;;;;;;;;5093387;27;20063;-63
2023/05/14 06:44:16;;;;;;;13.68;8.38;;;;;;;;;;5087065;28;20075;-62
2023/05/14 06:46:42;;;;;;;12.88;7.70;;;;;;;;;;5092257;28;20032;-62
2023/05/14 06:49:08;;;;;;;13.10;8.00;;;;;;;;;;5090235;28;20070;-62
2023/05/14 06:51:34;;;;;;;16.63;8.32;;;;;;;;;;5092486;28;20091;-61
2023/05/14 06:54:00;;;;;;;18.25;9.00;;;;;;;;;;5099139;28;20035;-62
2023/05/14 06:56:27;;;;;;;14.35;6.75;;;;;;;;;;5099070;28;20119;-62
2023/05/14 06:58:53;;;;;;;13.35;7.40;;;;;;;;;;5096935;28;20080;-61
2023/05/14 07:01:19;;;;;;;12.05;7.75;;;;;;;;;;5093434;28;20052;-62
2023/05/14 07:03:45;;;;;;;16.52;7.90;;;;;;;;;;5091696;28;20126;-62
2023/05/14 07:06:12;;;;;;;13.82;8.10;;;;;;;;;;5093767;28;20611;-61
2023/05/14 07:08:39;;;;;;;12.73;7.38;;;;;;;;;;5090618;28;20126;-61
2023/05/14 07:11:05;;;;;;;19.02;8.63;;;;;;;;;;5107316;28;20293;-62
2023/05/14 07:13:31;;;;;;;11.07;6.30;;;;;;;;;;5101551;28;20530;-61
2023/05/14 07:15:57;;;;;;;21.80;7.32;;;;;;;;;;5104919;28;20043;-62
2023/05/14 07:18:23;;;;;;;17.38;7.18;;;;;;;;;;5108773;28;20059;-61
2023/05/14 07:20:50;;;;;;;11.27;6.28;;;;;;;;;;5099317;28;20094;-62
2023/05/14 07:23:16;;;;;;;13.52;7.30;;;;;;;;;;5093155;28;20044;-61
2023/05/14 07:25:42;;;;;;;12.10;6.75;;;;;;;;;;5091880;28;20035;-61
2023/05/14 07:28:08;;;;;;;12.55;8.32;;;;;;;;;;5092013;28;20131;-62
2023/05/14 07:30:34;;;;;;;12.13;6.65;;;;;;;;;;5093276;28;20131;-61
2023/05/14 07:33:00;;;;;;;15.63;7.22;;;;;;;;;;5090920;28;20047;-62
2023/05/14 07:35:26;;;;;;;14.52;6.90;;;;;;;;;;5096001;28;20040;-62
2023/05/14 07:37:53;;;;;;;14.07;7.07;;;;;;;;;;5100441;28;20046;-62
2023/05/14 07:40:19;;;;;;;15.23;7.15;;;;;;;;;;5105924;28;20084;-62
2023/05/14 07:42:45;;;;;;;25.48;8.55;;;;;;;;;;5089929;28;20366;-61
2023/05/14 07:45:11;;;;;;;13.55;7.03;;;;;;;;;;5092762;28;20281;-61
2023/05/14 07:47:39;;;;;;;14.57;6.65;;;;;;;;;;5102507;28;20512;-61
2023/05/14 07:50:06;;;;;;;12.68;7.20;;;;;;;;;;5098142;28;20042;-62
2023/05/14 07:52:32;;;;;;;13.30;6.30;;;;;;;;;;5091557;28;20036;-62
2023/05/14 07:55:00;;;;;;;23.23;8.20;;;;;;;;;;5093134;28;20047;-62
2023/05/14 07:57:26;;;;;;;11.88;7.20;;;;;;;;;;5104526;28;20397;-62
2023/05/14 07:59:52;;;;;;;15.80;7.30;;;;;;;;;;5091011;28;20622;-62
2023/05/14 08:02:18;;;;;;;14.38;7.78;;;;;;;;;;5098035;28;20044;-62
2023/05/14 08:04:45;;;;;;;21.88;7.28;;;;;;;;;;5097017;28;20032;-62
2023/05/14 08:07:11;;;;;;;19.15;9.05;;;;;;;;;;5098767;28;20047;-62
2023/05/14 08:09:37;;;;;;;11.25;7.40;;;;;;;;;;5095437;28;20088;-62
2023/05/14 08:12:03;;;;;;;13.43;7.10;;;;;;;;;;5101747;28;20100;-62
2023/05/14 08:14:30;;;;;;;15.50;8.73;;;;;;;;;;5101436;28;20052;-62
2023/05/14 08:16:55;;;;;;;15.25;8.15;;;19.40;99.90;;;;;;5097276;28;20110;-62
2023/05/14 08:19:23;;;;;;;16.30;8.23;;;14.70;99.90;;;;;;5102978;28;20063;-62
2023/05/14 08:21:50;;;;;;;19.90;8.13;;;14.60;99.90;;;;;;5107569;28;20121;-59
2023/05/14 08:24:17;;;;;;;13.50;8.23;;;14.70;99.90;;;;;;5104838;28;20085;-62
2023/05/14 08:26:42;;;;;;;12.25;7.00;;;14.60;99.90;;;;;;5098302;28;20138;-62
2023/05/14 08:29:08;;;;;;;14.05;7.15;;;14.70;99.90;;;;;;5107169;28;20114;-62
2023/05/14 08:31:34;;;;;;;13.10;7.57;;;14.70;99.90;;;;;;5097096;28;20032;-62
2023/05/14 08:34:00;;;;;;;15.45;7.80;;;14.70;99.90;;;;;;5105051;28;20095;-62
2023/05/14 08:36:25;;;;;;;16.77;7.55;;;14.80;99.90;;;;;;5106403;28;20504;-62
2023/05/14 08:38:52;;;;;;;18.27;8.63;;;;;;;;;;5106619;28;20222;-62
2023/05/14 08:41:18;;;;;;;15.63;8.10;;;;;;;;;;5105718;28;20035;-63
2023/05/14 08:43:50;;;;;;;17.95;7.32;;;;;;;;;;5091287;28;20062;-62
2023/05/14 08:46:17;;;;;;;16.10;7.68;;;;;;;;;;5097576;28;20597;-62
2023/05/14 08:48:46;;;;;;;15.68;7.40;;;;;;;;;;5104006;28;20172;-62
2023/05/14 08:51:13;;;;;;;13.77;7.40;;;;;;;;;;5103571;28;20115;-62
2023/05/14 08:53:39;;;;;;;13.38;6.47;;;;;;;;;;5094453;28;20105;-62
2023/05/14 08:56:06;;;;;;;22.27;8.77;;;;;;;;;;5096051;28;20036;-62
2023/05/14 08:58:32;;;;;;;17.65;7.50;;;;;;;;;;5104504;28;20039;-62
2023/05/14 09:00:59;;;;;;;14.70;7.50;;;;;;;;;;5096135;28;20496;-62
2023/05/14 09:03:25;;;;;;;14.73;7.10;;;;;;;;;;5095345;28;20350;-63
2023/05/14 09:05:51;;;;;;;13.90;7.32;;;;;;;;;;5099755;28;20060;-62
2023/05/14 09:08:18;;;;;;;11.38;7.25;;;14.90;99.90;;;;;;5098935;28;20356;-63
2023/05/14 09:10:44;;;;;;;11.90;7.15;;;;;;;;;;5094900;28;20152;-63
2023/05/14 09:13:11;;;;;;;12.85;7.13;;;;;;;;;;5090392;28;20506;-62
2023/05/14 09:15:40;;;;;;;14.18;7.10;;;;;;;;;;5100624;28;20483;-62
2023/05/14 09:18:06;;;;;;;19.13;8.18;;;;;;;;;;5105733;28;20036;-63
2023/05/14 09:20:33;;;;;;;16.45;7.65;;;;;;;;;;5095634;28;20040;-62
2023/05/14 09:23:00;;;;;;;14.98;6.97;;;;;;;;;;5091139;28;20048;-63
2023/05/14 09:25:27;;;;;;;9.70;6.68;;;;;;;;;;5104791;28;20447;-63
2023/05/14 09:27:54;;;;;;;11.05;7.05;;;;;;;;;;5096041;28;20401;-63
2023/05/14 09:30:20;;;;;;;17.10;7.45;;;;;;;;;;5090626;28;20043;-62
2023/05/14 09:32:48;;;;;;;14.40;7.90;;;;;;;;;;5094840;28;20123;-62
2023/05/14 09:35:21;;;;;;;12.15;7.43;;;;;;;;;;5090379;27;20062;-63
2023/05/14 09:37:49;;;;;;;13.65;7.72;;;;;;;;;;5095955;28;20578;-62
2023/05/14 09:40:16;;;;;;;12.18;7.88;;;;;;;;;;5103093;28;20039;-62
2023/05/14 09:42:42;;;;;;;14.50;8.27;;;;;;;;;;5092918;28;20409;-63
2023/05/14 09:45:08;;;;;;;11.05;7.20;;;15.70;99.90;;;;;;5103215;28;20089;-63
2023/05/14 09:47:35;;;;;;;14.73;8.55;;;16.30;99.90;;;;;;5099607;28;20036;-62
2023/05/14 09:50:02;;;;;;;11.93;7.75;;;16.40;99.90;;;;;;5098125;28;20097;-62
2023/05/14 09:52:28;;;;;;;16.00;8.07;;;16.40;99.90;;;;;;5105739;28;20053;-62
2023/05/14 09:54:54;;;;;;;16.50;7.18;;;16.50;99.90;;;;;;5105287;28;20127;-62
2023/05/14 09:57:20;;;;;;;15.95;8.07;;;;;;;;;;5096704;28;20036;-63
2023/05/14 09:59:46;;;;;;;11.65;7.90;;;;;;;;;;5096617;28;20067;-62
2023/05/14 10:02:21;;;;;;;10.63;7.63;;;;;;;;;;5102871;28;20039;-63
2023/05/14 10:04:50;;;;;;;13.38;8.65;;;;;;;;;;5105688;28;20040;-62
2023/05/14 10:07:18;;;;;;;14.75;8.23;;;;;;;;;;5102943;28;20043;-63
2023/05/14 10:09:45;;;;;;;14.10;8.30;;;;;;;;;;5105098;27;20039;-62
2023/05/14 10:12:13;;;;;;;11.65;7.90;;;;;;;;;;5104948;28;20717;-63
2023/05/14 10:14:41;;;;;;;12.70;7.15;;;;;;;;;;5097738;28;20060;-62
2023/05/14 10:17:16;;;;;;;14.43;7.70;;;;;;;;;;5098402;28;20056;-62
2023/05/14 10:19:45;;;;;;;15.43;8.00;;;;;;;;;;5101064;28;20485;-62
2023/05/14 10:22:12;;;;;;;13.63;7.60;;;;;;;;;;5106130;28;20090;-62
2023/05/14 10:24:38;;;;;;;9.82;7.78;;;;;;;;;;5099643;28;20040;-62
2023/05/14 10:27:05;;;;;;;13.93;7.90;;;;;;;;;;5098869;28;20100;-62
2023/05/14 10:29:33;;;;;;;10.75;6.30;;;;;;;;;;5094417;28;20066;-62
2023/05/14 10:32:03;;;;;;;13.57;7.97;;;;;;;;;;5089894;28;20591;-62
2023/05/14 10:34:42;;;;;;;11.50;8.27;;;;;;;;;;5100463;28;20127;-62
2023/05/14 10:37:11;;;;;;;11.43;6.10;;;;;;;;;;5101494;28;20043;-62
2023/05/14 10:39:41;;;;;;;8.23;7.40;;;;;;;;;;5105628;28;20043;-62
2023/05/14 10:42:08;;;;;;;15.70;7.75;;;;;;;;;;5099655;28;20553;-62
2023/05/14 10:44:35;;;;;;;11.57;7.20;;;;;;;;;;5097746;28;20040;-62
2023/05/14 10:47:01;;;;;;;15.07;7.38;;;;;;;;;;5103519;28;20500;-62
2023/05/14 10:49:27;;;;;;;12.57;7.75;;;;;;;;;;5105818;28;20066;-62
2023/05/14 10:51:55;;;;;;;14.23;7.55;;;;;;;;;;5092118;28;20043;-62
2023/05/14 10:54:22;;;;;;;15.70;7.93;;;16.50;99.90;;;;;;5100647;28;20439;-62
2023/05/14 10:56:48;;;;;;;14.02;8.07;;;17.60;99.90;;;;;;5094960;28;20563;-62
2023/05/14 10:59:17;;;;;;;11.45;6.38;;;17.60;99.90;;;;;;5103652;28;20047;-62
2023/05/14 11:01:45;;;;;;;13.57;7.55;;;17.60;99.90;;;;;;5093661;28;20113;-62
2023/05/14 11:04:18;;;;;;;10.95;7.15;;;17.60;99.90;;;;;;5097382;28;20085;-62
2023/05/14 11:06:45;;;;;;;10.65;7.13;;;17.70;99.90;;;;;;5103872;28;20043;-62
2023/05/14 11:09:16;;;;;;;12.48;8.88;;;17.70;99.90;;;;;;5088697;28;20035;-62
2023/05/14 11:11:42;;;;;;;9.68;7.22;;;17.70;99.90;;;;;;5102737;28;20132;-62
2023/05/14 11:14:09;;;;;;;8.43;7.03;;;17.70;99.90;;;;;;5096085;28;20155;-62
2023/05/14 11:16:36;;;;;;;16.38;7.80;;;17.70;99.90;;;;;;5097773;28;20048;-62
2023/05/14 11:19:03;;;;;;;9.63;6.93;;;17.80;99.90;;;;;;5105173;28;20112;-62
2023/05/14 11:21:31;;;;;;;10.38;7.68;;;17.90;99.90;;;;;;5094492;28;20040;-62
2023/05/14 11:23:59;;;;;;;13.90;8.00;;;17.90;99.90;;;;;;5103876;28;20189;-62
2023/05/14 11:26:25;;;;;;;10.30;7.28;;;18.00;99.90;;;;;;5098927;28;20500;-62
2023/05/14 11:28:51;;;;;;;12.13;8.25;;;;;;;;;;5092174;28;20068;-62
2023/05/14 11:31:18;;;;;;;9.55;6.80;;;;;;;;;;5098276;28;20053;-62
2023/05/14 11:33:44;;;;;;;15.95;8.43;;;;;;;;;;5101805;28;20043;-62
2023/05/14 11:36:11;;;;;;;13.43;8.27;;;;;;;;;;5098053;28;20430;-62
2023/05/14 11:38:50;;;;;;;12.32;7.50;;;;;;;;;;5091733;28;20118;-62
2023/05/14 11:41:16;;;;;;;10.95;8.10;;;;;;;;;;5100566;28;20051;-62
2023/05/14 11:43:42;;;;;;;12.93;8.05;;;;;;;;;;5094670;28;20050;-62
2023/05/14 11:46:16;;;;;;;10.45;8.00;;;;;;;;;;5096765;28;20039;-62
2023/05/14 11:48:42;;;;;;;12.90;7.93;;;;;;;;;;5103126;28;20039;-62
2023/05/14 11:51:08;;;;;;;10.20;7.25;;;;;;;;;;5097955;28;20032;-62
2023/05/14 11:53:34;;;;;;;15.30;8.88;;;;;;;;;;5105101;28;20050;-62
2023/05/14 11:56:02;;;;;;;14.23;7.43;;;;;;;;;;5100671;28;20035;-62
2023/05/14 11:58:31;;;;;;;10.35;6.38;;;;;;;;;;5098690;28;20473;-62
2023/05/14 12:00:57;;;;;;;11.43;7.13;;;;;;;;;;5102005;28;20044;-62
2023/05/14 12:03:28;;;;;;;11.90;7.68;;;;;;;;;;5103530;28;20051;-62
2023/05/14 12:05:55;;;;;;;12.18;6.20;;;;;;;;;;5096723;28;20071;-63
2023/05/14 12:08:31;;;;;;;12.63;8.25;;;;;;;;;;5100037;28;20040;-62
2023/05/14 12:10:58;;;;;;;11.55;6.65;;;;;;;;;;5100137;28;20089;-62
2023/05/14 12:13:26;;;;;;;17.15;7.25;;;;;;;;;;5097292;28;20716;-62
2023/05/14 12:15:56;;;;;;;8.85;7.10;;;;;;;;;;5096420;28;20047;-62
2023/05/14 12:18:27;;;;;;;9.95;6.35;;;;;;;;;;5092975;28;20397;-62
2023/05/14 12:20:53;;;;;;;11.68;7.30;;;;;;;;;;5107975;28;20046;-62
2023/05/14 12:23:26;;;;;;;11.98;6.78;;;;;;;;;;5096791;28;20515;-62
2023/05/14 12:25:52;;;;;;;9.70;7.78;;;;;;;;;;5099893;28;20119;-62
2023/05/14 12:28:19;;;;;;;9.30;6.88;;;;;;;;;;5101386;28;20036;-62
2023/05/14 12:30:46;;;;;;;8.93;6.55;;;;;;;;;;5108232;28;20047;-62
2023/05/14 12:33:13;;;;;;;10.32;7.35;;;;;;;;;;5103520;28;20478;-62
2023/05/14 12:35:39;;;;;;;13.23;6.47;;;;;;;;;;5086786;28;20040;-62
2023/05/14 12:38:06;;;;;;;11.48;6.95;;;;;;;;;;5087961;28;20067;-62
2023/05/14 12:40:32;;;;;;;10.18;6.78;;;;;;;;;;5092729;28;20131;-62
2023/05/14 12:42:58;;;;;;;14.90;7.00;;;;;;;;;;5086031;28;20048;-62
2023/05/14 12:45:24;;;;;;;18.80;7.80;;;;;;;;;;5090388;28;20036;-62
2023/05/14 12:47:51;;;;;;;9.77;6.50;;;;;;;;;;5089865;28;20493;-62
2023/05/14 12:50:17;;;;;;;11.07;6.30;;;;;;;;;;5089676;28;20042;-62
2023/05/14 12:52:43;;;;;;;10.52;6.93;;;;;;;;;;5089046;28;20404;-62
2023/05/14 12:55:09;;;;;;;9.95;6.40;;;;;;;;;;5091558;28;20036;-62
2023/05/14 12:57:37;;;;;;;9.32;6.60;;;;;;;;;;5090149;28;20048;-62
2023/05/14 13:00:05;;;;;;;8.55;6.47;;;;;;;;;;5093418;28;20047;-63
2023/05/14 13:02:32;;;;;;;10.63;5.60;;;;;;;;;;5098657;28;20066;-62
2023/05/14 13:04:58;;;;;;;7.93;6.57;;;;;;;;;;5106696;28;20031;-62
2023/05/14 13:07:24;;;;;;;8.38;6.30;;;;;;;;;;5107081;28;20127;-63
2023/05/14 13:09:50;;;;;;;10.27;5.75;;;;;;;;;;5094152;28;20063;-62
2023/05/14 13:12:16;;;;;;;9.13;5.82;;;;;;;;;;5092305;28;20054;-62
2023/05/14 13:14:42;;;;;;;8.13;6.22;;;;;;;;;;5090985;28;20052;-62
2023/05/14 13:17:08;;;;;;;10.48;6.70;;;;;;;;;;5105354;28;20533;-62
2023/05/14 13:19:35;;;;;;;8.23;5.88;;;;;;;;;;5095772;28;20134;-63
2023/05/14 13:22:01;;;;;;;9.35;6.38;;;;;;;;;;5091602;28;20797;-61
2023/05/14 13:24:27;;;;;;;9.63;6.20;;;;;;;;;;5082588;28;20130;-61
2023/05/14 13:26:53;;;;;;;8.88;7.45;;;;;;;;;;5094401;28;20144;-62
2023/05/14 13:29:19;;;;;;;11.18;6.82;;;;;;;;;;5097104;28;20103;-61
2023/05/14 13:31:45;;;;;;;8.93;6.32;;;;;;;;;;5103002;28;20154;-62
2023/05/14 13:34:12;;;;;;;10.10;5.72;;;;;;;;;;5091650;28;20345;-61
2023/05/14 13:36:38;;;;;;;8.30;5.70;;;;;;;;;;5104669;28;20045;-62
2023/05/14 13:39:07;;;;;;;7.90;6.53;;;;;;;;;;5095607;28;20112;-62
2023/05/14 13:41:34;;;;;;;8.03;5.80;;;;;;;;;;5101597;28;20111;-62
2023/05/14 13:44:00;;;;;;;10.60;6.97;;;;;;;;;;5099165;28;20048;-61
2023/05/14 13:46:26;;;;;;;14.15;8.20;;;;;;;;;;5104335;28;20126;-61
2023/05/14 13:48:52;;;;;;;11.20;8.30;;;;;;;;;;5097536;28;20036;-61
2023/05/14 13:51:19;;;;;;;12.07;8.15;;;;;;;;;;5094028;28;20042;-61
2023/05/14 13:53:45;;;;;;;15.48;9.23;;;;;;;;;;5100498;27;20044;-62
2023/05/14 13:56:11;;;;;;;14.02;9.50;;;;;;;;;;5103765;28;20051;-62
2023/05/14 13:58:37;;;;;;;9.82;8.73;;;;;;;;;;5090958;28;20135;-61
2023/05/14 14:01:03;;;;;;;12.88;10.07;;;;;;;;;;5095150;28;20485;-61
2023/05/14 14:03:29;;;;;;;12.48;8.90;;;;;;;;;;5091253;28;20485;-62
2023/05/14 14:05:56;;;;;;;14.00;8.23;;;;;;;;;;5102548;28;20044;-62
2023/05/14 14:08:22;;;;;;;18.40;9.93;;;;;;;;;;5103267;28;20067;-62
2023/05/14 14:10:48;;;;;;;16.80;9.55;;;;;;;;;;5094597;28;20054;-62
2023/05/14 14:13:14;;;;;;;15.88;9.73;;;;;;;;;;5108642;28;20041;-62
2023/05/14 14:15:41;;;;;;;12.80;9.73;;;;;;;;;;5095260;28;20055;-62